Time;durP1;ratioP1;P1;durP2;ratioP2;P2;SDS_P1;SDS_P2;PMS_P1;PMS_P2;Temp;Humidity;BMP_temperature;BMP_pressure;BME280_temperature;BME280_humidity;BME280_pressure;Samples;Min_cycle;Max_cycle;Signal;HPM_P1;HPM_P2
2024/03/18 00:02:07;;;;;;;8.63;7.20;;;;;;;9.93;79.38;95663.50;5096257;28;20673;-78
2024/03/18 00:04:32;;;;;;;8.87;7.20;;;;;;;9.85;79.48;95665.16;5063702;28;20185;-78
2024/03/18 00:06:58;;;;;;;8.77;6.50;;;;;;;9.97;79.18;95660.63;5076447;28;20204;-78
2024/03/18 00:09:23;;;;;;;8.10;7.27;;;;;;;9.93;79.47;95658.31;5063477;28;20219;-78
2024/03/18 00:11:48;;;;;;;8.37;6.07;;;;;;;9.91;79.76;95662.84;5080436;28;20193;-78
2024/03/18 00:14:14;;;;;;;10.30;6.83;;;;;;;9.96;79.63;95653.78;5082278;28;20268;-78
2024/03/18 00:16:39;;;;;;;8.70;6.83;;;;;;;9.79;80.01;95656.16;5083578;28;20204;-78
2024/03/18 00:19:04;;;;;;;8.80;6.57;;;;;;;9.79;80.20;95650.97;5083081;28;20192;-78
2024/03/18 00:21:30;;;;;;;9.70;6.97;;;;;;;9.80;80.06;95654.38;5066089;28;20614;-78
2024/03/18 00:23:55;;;;;;;7.77;6.60;;;;;;;9.87;79.88;95653.69;5064419;28;20202;-78
2024/03/18 00:26:21;;;;;;;8.87;7.53;;;;;;;9.90;80.10;95650.00;5097503;28;20204;-78
2024/03/18 00:28:46;;;;;;;8.97;6.63;;;;;;;9.97;79.84;95651.06;5100524;28;20208;-78
2024/03/18 00:31:11;;;;;;;9.37;6.43;;;;;;;9.98;79.79;95650.09;5064756;28;20705;-78
2024/03/18 00:33:37;;;;;;;7.57;6.23;;;;;;;9.99;80.14;95645.75;5080860;28;20185;-78
2024/03/18 00:36:03;;;;;;;9.33;6.60;;;;;;;9.93;80.25;95653.13;5080250;28;20205;-78
2024/03/18 00:38:29;;;;;;;10.17;6.57;;;;;;;9.80;80.66;95642.22;5081076;28;20275;-78
2024/03/18 00:41:44;;;;;;;10.50;6.47;;;;;;;9.86;80.66;95646.84;5082633;28;20286;-78
2024/03/18 00:43:42;;;;;;;8.60;6.10;;;;;;;9.91;80.76;95639.47;5085602;28;20215;-78
2024/03/18 00:46:07;;;;;;;9.90;7.10;;;;;;;9.81;80.54;95638.69;5065318;28;20201;-78
2024/03/18 00:48:34;;;;;;;9.90;6.90;;;;;;;9.82;80.58;95632.56;5065309;28;20184;-78
2024/03/18 00:50:59;;;;;;;11.60;6.53;;;;;;;9.91;80.44;95633.47;5065379;28;20230;-78
2024/03/18 00:53:25;;;;;;;8.13;6.23;;;;;;;9.87;81.19;95629.53;5066475;28;20188;-78
2024/03/18 00:55:50;;;;;;;9.37;6.83;;;;;;;9.80;81.25;95629.25;5066548;28;20245;-78
2024/03/18 00:58:15;;;;;;;6.93;6.07;;;;;;;9.86;81.31;95620.91;5066445;28;20181;-78
2024/03/18 01:00:41;;;;;;;5.80;5.20;;;;;;;9.99;80.56;95620.63;5080326;28;20685;-78
2024/03/18 01:03:07;;;;;;;9.87;6.00;;;;;;;9.94;80.22;95618.44;5062431;28;20195;-78
2024/03/18 01:05:34;;;;;;;6.80;5.97;;;;;;;10.02;80.18;95625.53;5066650;28;20199;-78
2024/03/18 01:07:59;;;;;;;11.43;5.80;;;;;;;10.00;80.18;95611.88;5061681;28;20235;-78
2024/03/18 01:10:25;;;;;;;5.40;4.50;;;;;;;10.02;80.25;95611.72;5081626;28;20681;-78
2024/03/18 01:12:50;;;;;;;5.93;4.37;;;;;;;9.99;80.34;95614.63;5080199;28;20275;-78
2024/03/18 01:15:16;;;;;;;8.67;4.60;;;;;;;9.98;80.79;95605.19;5065897;28;20273;-78
2024/03/18 01:17:41;;;;;;;7.57;4.37;;;;;;;9.98;80.66;95602.56;5081058;28;20223;-78
2024/03/18 01:20:09;;;;;;;5.53;4.33;;;;;;;9.98;80.74;95602.56;5083221;28;20185;-78
2024/03/18 01:22:35;;;;;;;6.60;4.87;;;;;;;9.81;81.59;95607.56;5064820;28;20198;-78
2024/03/18 01:25:01;;;;;;;8.10;4.73;;;;;;;9.65;82.09;95599.56;5065561;28;20274;-78
2024/03/18 01:27:28;;;;;;;8.53;4.73;;;;;;;9.75;81.70;95604.72;5082266;28;20210;-78
2024/03/18 01:29:55;;;;;;;5.27;4.00;;;;;;;9.73;81.80;95598.88;5083011;28;20204;-78
2024/03/18 01:32:20;;;;;;;7.80;4.10;;;;;;;9.78;81.60;95592.28;5065049;28;20184;-78
2024/03/18 01:34:46;;;;;;;7.07;5.00;;;;;;;9.93;80.89;95585.69;5082722;28;20188;-78
2024/03/18 01:37:11;;;;;;;8.77;4.30;;;;;;;9.97;80.91;95585.38;5097824;28;20212;-78
2024/03/18 01:39:37;;;;;;;6.37;4.70;;;;;;;9.81;81.70;95584.22;5098712;28;20181;-78
2024/03/18 01:42:02;;;;;;;8.27;4.97;;;;;;;9.87;81.51;95586.25;5065833;28;20223;-78
2024/03/18 01:44:27;;;;;;;6.03;4.60;;;;;;;9.99;80.81;95578.31;5097366;28;20185;-78
2024/03/18 01:46:53;;;;;;;5.17;3.93;;;;;;;10.04;80.71;95573.47;5080753;28;20200;-78
2024/03/18 01:49:18;;;;;;;5.43;3.83;;;;;;;10.02;80.86;95573.63;5100438;28;20196;-78
2024/03/18 01:51:43;;;;;;;5.17;3.70;;;;;;;10.01;81.55;95566.81;5097093;28;20185;-78
2024/03/18 01:54:10;;;;;;;7.17;4.70;;;;;;;10.01;81.56;95571.19;5065000;28;20185;-78
2024/03/18 01:56:35;;;;;;;4.70;3.70;;;;;;;10.01;81.89;95566.00;5081271;28;20570;-79
2024/03/18 01:59:05;;;;;;;5.30;3.53;;;;;;;10.04;81.73;95563.91;5079712;28;20182;-78
2024/03/18 02:01:30;;;;;;;5.40;3.30;;;;;;;9.99;81.75;95567.91;5065661;28;20206;-78
2024/03/18 02:04:05;;;;;;;4.47;3.13;;;;;;;10.05;82.29;95549.16;5081167;28;20660;-78
2024/03/18 02:06:30;;;;;;;4.20;3.30;;;;;;;10.01;82.22;95548.66;5065348;28;20200;-78
2024/03/18 02:08:56;;;;;;;4.43;2.80;;;;;;;10.06;81.89;95543.81;5065281;28;20664;-78
2024/03/18 02:11:21;;;;;;;3.40;3.00;;;;;;;10.04;82.22;95537.97;5079369;28;20180;-78
2024/03/18 02:13:46;;;;;;;4.90;3.40;;;;;;;10.04;82.37;95544.94;5064690;28;20180;-78
2024/03/18 02:16:12;;;;;;;4.80;3.13;;;;;;;9.99;83.00;95539.38;5065394;28;20212;-78
2024/03/18 02:18:38;;;;;;;4.77;2.93;;;;;;;9.98;83.19;95535.13;5065449;28;20184;-78
2024/03/18 02:21:03;;;;;;;6.73;3.47;;;;;;;9.98;83.70;95541.13;5081429;28;20214;-78
2024/03/18 02:23:29;;;;;;;5.57;3.10;;;;;;;9.93;84.38;95539.00;5098730;28;20193;-78
2024/03/18 02:25:54;;;;;;;3.03;2.50;;;;;;;10.07;83.76;95536.84;5095670;28;20216;-78
2024/03/18 02:28:19;;;;;;;3.97;2.93;;;;;;;10.13;83.02;95531.09;5099832;28;20193;-78
2024/03/18 02:30:45;;;;;;;4.70;2.40;;;;;;;10.09;83.08;95532.38;5079966;28;20204;-78
2024/03/18 02:33:10;;;;;;;6.63;2.97;;;;;;;10.02;83.32;95521.75;5095704;28;20189;-78
2024/03/18 02:35:35;;;;;;;4.47;2.50;;;;;;;10.02;83.36;95521.75;5078596;28;20197;-78
2024/03/18 02:38:01;;;;;;;3.40;2.70;;;;;;;10.05;83.31;95518.03;5081248;28;20204;-78
2024/03/18 02:40:26;;;;;;;4.77;2.60;;;;;;;10.01;83.72;95516.69;5063067;28;20649;-78
2024/03/18 02:42:51;;;;;;;4.57;2.77;;;;;;;10.02;83.41;95516.56;5080843;28;20203;-78
2024/03/18 02:45:17;;;;;;;7.17;3.53;;;;;;;10.00;83.43;95513.28;5063483;28;20181;-78
2024/03/18 02:47:43;;;;;;;4.73;2.70;;;;;;;10.01;83.36;95506.31;5086051;28;21144;-78
2024/03/18 02:50:14;;;;;;;4.47;3.40;;;;;;;10.00;83.72;95502.09;5099571;28;20537;-78
2024/03/18 02:52:40;;;;;;;3.87;2.30;;;;;;;10.05;83.41;95499.88;5064976;28;20180;-78
2024/03/18 02:55:06;;;;;;;2.90;2.30;;;;;;;10.03;83.57;95496.63;5063743;28;20237;-77
2024/03/18 02:57:32;;;;;;;4.77;2.80;;;;;;;10.04;83.83;95493.88;5064480;28;20217;-78
2024/03/18 02:59:57;;;;;;;4.13;2.30;;;;;;;10.03;83.50;95488.84;5079522;28;20175;-78
2024/03/18 03:02:22;;;;;;;4.73;2.20;;;;;;;10.04;83.70;95483.50;5077906;28;20263;-78
2024/03/18 03:04:48;;;;;;;5.93;2.50;;;;;;;9.88;84.49;95485.91;5051701;28;20187;-78
2024/03/18 03:07:13;;;;;;;5.80;2.23;;;;;;;10.03;84.22;95486.25;5064325;28;20208;-78
2024/03/18 03:09:38;;;;;;;3.70;1.80;;;;;;;10.05;84.06;95486.91;5099218;28;20203;-78
2024/03/18 03:12:04;;;;;;;3.43;1.77;;;;;;;10.14;83.52;95488.63;5097641;28;20180;-78
2024/03/18 03:14:30;;;;;;;4.80;2.40;;;;;;;10.08;83.67;95486.63;5081005;28;20669;-78
2024/03/18 03:16:56;;;;;;;2.93;2.40;;;;;;;10.08;83.63;95487.44;5077750;28;20211;-78
2024/03/18 03:19:21;;;;;;;4.80;2.60;;;;;;;10.06;83.94;95486.75;5081346;28;20196;-78
2024/03/18 03:21:47;;;;;;;5.40;2.67;;;;;;;10.08;83.83;95491.81;5079773;28;20180;-78
2024/03/18 03:24:12;;;;;;;4.47;2.90;;;;;;;10.03;84.22;95491.44;5079530;28;20270;-78
2024/03/18 03:26:38;;;;;;;3.07;1.90;;;;;;;10.04;83.96;95482.69;5094912;28;20239;-78
2024/03/18 03:29:03;;;;;;;5.57;2.20;;;;;;;10.08;83.81;95484.03;5092939;28;20184;-78
2024/03/18 03:31:29;;;;;;;3.33;1.83;;;;;;;10.10;83.96;95479.50;5098239;28;20658;-78
2024/03/18 03:33:54;;;;;;;3.40;2.23;;;;;;;10.10;84.07;95471.72;5063334;28;20254;-78
2024/03/18 03:36:20;;;;;;;2.00;1.80;;;;;;;10.12;83.70;95464.59;5076838;28;20235;-78
2024/03/18 03:38:45;;;;;;;2.33;1.60;;;;;;;10.17;83.47;95470.19;5059546;28;20184;-78
2024/03/18 03:41:10;;;;;;;7.73;2.53;;;;;;;10.14;83.48;95462.66;5064268;28;20237;-76
2024/03/18 03:43:36;;;;;;;2.93;1.90;;;;;;;10.07;84.04;95467.66;5072125;28;20204;-77
2024/03/18 03:46:02;;;;;;;3.93;1.83;;;;;;;10.07;84.15;95457.28;5062576;28;20185;-77
2024/03/18 03:48:28;;;;;;;5.93;2.00;;;;;;;10.08;84.20;95455.50;5060872;28;20189;-77
2024/03/18 03:50:54;;;;;;;2.80;1.63;;;;;;;10.08;84.19;95455.50;5076185;28;20203;-77
2024/03/18 03:53:21;;;;;;;4.47;2.17;;;;;;;9.97;84.85;95445.31;5075526;28;20180;-77
2024/03/18 03:55:46;;;;;;;2.77;1.90;;;;;;;10.09;84.25;95449.34;5078775;28;20208;-77
2024/03/18 03:58:12;;;;;;;4.23;2.20;;;;;;;10.07;84.25;95439.13;5063682;28;20201;-78
2024/03/18 04:00:44;;;;;;;2.60;1.63;;;;;;;10.19;83.91;95442.31;5066368;28;20693;-78
2024/03/18 04:03:14;;;;;;;2.57;1.60;;;;;;;10.20;83.63;95443.94;5096000;28;20201;-78
2024/03/18 04:05:40;;;;;;;2.60;1.90;;;;;;;10.15;83.74;95439.16;5067015;28;20242;-77
2024/03/18 04:08:05;;;;;;;5.07;2.20;;;;;;;10.14;83.72;95439.31;5068126;28;20296;-78
2024/03/18 04:10:31;;;;;;;3.17;2.00;;;;;;;10.19;83.69;95439.69;5087077;28;20240;-77
2024/03/18 04:12:56;;;;;;;3.10;1.97;;;;;;;10.18;83.38;95436.28;5106639;28;20184;-78
2024/03/18 04:15:21;;;;;;;3.07;2.10;;;;;;;10.25;83.20;95436.56;5084971;28;20181;-78
2024/03/18 04:17:50;;;;;;;4.97;2.10;;;;;;;10.15;83.47;95436.56;5067197;28;20208;-78
2024/03/18 04:20:18;;;;;;;4.40;1.90;;;;;;;10.12;83.54;95438.66;5067775;28;20180;-78
2024/03/18 04:22:51;;;;;;;3.30;1.87;;;;;;;9.98;84.48;95439.97;5083200;28;20192;-78
2024/03/18 04:25:18;;;;;;;3.40;1.77;;;;;;;9.89;84.99;95443.44;5064471;28;20649;-77
2024/03/18 04:27:44;;;;;;;2.97;2.10;;;;;;;9.84;84.71;95436.09;5067507;28;20213;-78
2024/03/18 04:30:13;;;;;;;5.03;1.83;;;;;;;9.54;86.25;95434.63;5062386;28;20263;-77
2024/03/18 04:32:40;;;;;;;5.67;2.00;;;;;;;9.91;84.90;95431.16;5080545;28;20653;-77
2024/03/18 04:35:06;;;;;;;2.93;1.77;;;;;;;10.06;83.77;95431.44;5079349;28;20173;-78
2024/03/18 04:37:34;;;;;;;4.33;1.87;;;;;;;10.07;83.80;95427.88;5079247;28;20207;-78
2024/03/18 04:40:01;;;;;;;5.27;1.70;;;;;;;10.13;83.50;95422.13;5093384;28;20199;-78
2024/03/18 04:42:26;;;;;;;4.33;1.70;;;;;;;10.14;83.06;95415.97;5079669;28;20192;-78
2024/03/18 04:44:52;;;;;;;2.70;2.10;;;;;;;10.14;83.20;95419.38;5079125;28;20749;-77
2024/03/18 04:47:17;;;;;;;2.43;1.70;;;;;;;10.18;82.88;95407.75;5079425;28;20791;-78
2024/03/18 04:49:42;;;;;;;4.43;1.80;;;;;;;10.19;82.71;95405.97;5099026;28;20689;-78
2024/03/18 04:52:08;;;;;;;3.67;1.37;;;;;;;10.13;82.88;95409.97;5063823;28;20184;-78
2024/03/18 04:54:33;;;;;;;3.40;1.53;;;;;;;10.19;82.98;95408.56;5077661;28;20675;-77
2024/03/18 04:56:59;;;;;;;3.50;1.70;;;;;;;10.17;82.76;95413.09;5079031;28;20201;-77
2024/03/18 04:59:24;;;;;;;2.27;1.67;;;;;;;10.09;82.98;95405.22;5064573;28;20185;-77
2024/03/18 05:01:50;;;;;;;2.33;1.87;;;;;;;10.06;83.21;95411.50;5062449;28;20181;-77
2024/03/18 05:04:15;;;;;;;3.10;1.97;;;;;;;10.11;82.79;95406.72;5092897;28;20199;-77
2024/03/18 05:06:41;;;;;;;2.73;1.60;;;;;;;9.99;83.19;95402.72;5075759;28;20204;-77
2024/03/18 05:09:09;;;;;;;1.93;1.70;;;;;;;10.08;82.68;95409.59;5093784;28;20180;-77
2024/03/18 05:11:34;;;;;;;2.33;1.67;;;;;;;10.07;82.69;95409.72;5073544;28;20304;-77
2024/03/18 05:14:00;;;;;;;3.03;1.70;;;;;;;10.04;83.15;95405.66;5075094;28;20184;-77
2024/03/18 05:16:27;;;;;;;2.30;1.47;;;;;;;10.12;82.60;95404.94;5094121;28;20192;-77
2024/03/18 05:18:53;;;;;;;3.87;1.50;;;;;;;10.17;82.17;95406.13;5074622;28;20270;-77
2024/03/18 05:21:18;;;;;;;3.80;1.80;;;;;;;10.22;82.13;95400.50;5057928;28;20545;-77
2024/03/18 05:23:43;;;;;;;1.77;1.43;;;;;;;10.23;82.02;95402.13;5092664;28;20186;-77
2024/03/18 05:26:09;;;;;;;6.57;1.70;;;;;;;10.21;82.39;95398.84;5060500;28;20201;-76
2024/03/18 05:28:34;;;;;;;2.30;1.80;;;;;;;10.21;82.70;95396.25;5094148;28;20192;-77
2024/03/18 05:30:59;;;;;;;2.87;1.70;;;;;;;10.19;82.63;95399.00;5077783;28;20235;-78
2024/03/18 05:33:25;;;;;;;3.80;1.37;;;;;;;10.17;83.13;95395.75;5063694;28;20189;-78
2024/03/18 05:35:50;;;;;;;7.70;1.70;;;;;;;10.15;82.77;95383.84;5080361;28;20192;-77
2024/03/18 05:38:15;;;;;;;4.87;2.03;;;;;;;10.16;82.65;95395.91;5064138;28;20226;-77
2024/03/18 05:40:41;;;;;;;6.43;3.20;;;;;;;9.94;83.08;95390.16;5063673;28;20288;-77
2024/03/18 05:43:06;;;;;;;5.80;3.20;;;;;;;10.02;83.33;95392.03;5063212;28;20204;-77
2024/03/18 05:45:31;;;;;;;2.50;1.90;;;;;;;9.85;83.92;95396.25;5063304;28;20185;-77
2024/03/18 05:47:57;;;;;;;3.47;2.20;;;;;;;9.94;84.01;95397.13;5078438;28;20200;-78
2024/03/18 05:50:22;;;;;;;5.13;2.17;;;;;;;9.99;83.96;95394.13;5063526;28;20254;-78
2024/03/18 05:52:48;;;;;;;4.93;2.20;;;;;;;10.03;83.58;95392.84;5094897;28;20181;-77
2024/03/18 05:55:13;;;;;;;3.23;1.67;;;;;;;9.96;83.70;95395.19;5079470;28;20222;-77
2024/03/18 05:57:39;;;;;;;2.00;1.80;;;;;;;9.95;83.90;95390.97;5059801;28;20216;-77
2024/03/18 06:00:04;;;;;;;2.43;1.70;;;;;;;10.07;83.43;95396.75;5076672;28;20177;-77
2024/03/18 06:02:30;;;;;;;1.87;1.60;;;;;;;10.14;83.10;95395.22;5074637;28;20192;-77
2024/03/18 06:04:55;;;;;;;5.20;2.33;;;;;;;10.09;83.10;95393.06;5094931;28;20184;-76
2024/03/18 06:07:21;;;;;;;4.33;1.87;;;;;;;10.10;83.34;95393.88;5075774;28;20708;-77
2024/03/18 06:09:47;;;;;;;4.27;1.80;;;;;;;10.10;83.41;95399.06;5074913;28;20222;-77
2024/03/18 06:12:12;;;;;;;3.70;2.00;;;;;;;10.14;83.42;95395.22;5074946;28;20646;-77
2024/03/18 06:14:37;;;;;;;4.40;1.70;;;;;;;10.15;83.36;95396.84;5095282;28;20180;-77
2024/03/18 06:17:04;;;;;;;4.23;2.07;;;;;;;10.18;83.51;95402.56;5059334;28;20203;-77
2024/03/18 06:19:33;;;;;;;3.70;1.70;;;;;;;10.22;83.57;95400.50;5059796;28;20184;-77
2024/03/18 06:22:09;;;;;;;3.70;1.67;;;;;;;10.24;83.87;95408.94;5074959;28;20220;-77
2024/03/18 06:25:54;;;;;;;6.37;2.20;;;;;;;10.23;84.21;95412.50;5075056;28;20222;-77
2024/03/18 06:27:20;;;;;;;4.87;4.03;;;;;;;10.23;84.89;95415.09;5074545;28;20257;-77
2024/03/18 06:29:46;;;;;;;4.47;3.50;;;;;;;10.24;85.09;95421.09;5072940;28;20208;-77
2024/03/18 06:32:11;;;;;;;3.93;3.53;;;;;;;10.22;85.36;95429.06;5075133;28;20188;-77
2024/03/18 06:34:36;;;;;;;16.67;14.40;;;;;;;10.20;85.91;95428.34;5057801;28;20193;-77
2024/03/18 06:37:02;;;;;;;17.60;15.23;;;;;;;10.16;86.08;95432.22;5072700;28;20763;-77
2024/03/18 06:39:27;;;;;;;8.80;4.90;;;;;;;10.11;86.53;95426.66;5055057;28;20184;-77
2024/03/18 06:41:52;;;;;;;6.67;4.37;;;;;;;10.08;86.78;95429.56;5093992;28;20665;-77
2024/03/18 06:44:18;;;;;;;7.20;4.67;;;;;;;10.06;87.20;95434.84;5059433;28;20704;-77
2024/03/18 06:46:43;;;;;;;7.93;4.30;;;;;;;10.04;87.79;95425.59;5072817;28;20208;-77
2024/03/18 06:49:09;;;;;;;3.87;3.53;;;;;;;10.13;86.96;95422.13;5093355;28;20206;-77
2024/03/18 06:51:34;;;;;;;4.53;3.40;;;;;;;10.19;86.38;95424.13;5059008;28;20203;-77
2024/03/18 06:53:59;;;;;;;4.67;3.40;;;;;;;10.09;87.28;95410.41;5060701;28;20184;-77
2024/03/18 06:56:25;;;;;;;5.60;2.60;;;;;;;10.15;86.81;95418.41;5058700;28;20304;-77
2024/03/18 06:58:50;;;;;;;3.00;2.30;;;;;;;10.12;87.28;95408.34;5093234;28;20192;-77
2024/03/18 07:01:15;;;;;;;5.50;2.90;;;;;;;10.10;87.53;95414.63;5091178;28;20176;-77
2024/03/18 07:03:41;;;;;;;3.43;2.33;;;;;;;10.06;88.32;95413.28;5071662;28;20695;-76
2024/03/18 07:06:06;;;;;;;6.03;4.17;;;;;;;10.02;88.76;95411.97;5073811;28;20204;-77
2024/03/18 07:08:32;;;;;;;9.57;6.40;;;;;;;10.04;88.93;95410.84;5057470;28;20191;-77
2024/03/18 07:10:57;;;;;;;9.53;4.63;;;;;;;10.05;89.05;95414.25;5057589;28;20208;-77
2024/03/18 07:13:23;;;;;;;8.23;4.40;;;;;;;10.10;89.66;95420.66;5069823;28;20184;-77
2024/03/18 07:15:48;;;;;;;8.93;4.20;;;;;;;10.06;90.01;95424.47;5092298;28;20176;-77
2024/03/18 07:18:14;;;;;;;4.47;3.20;;;;;;;10.11;89.84;95422.28;5075020;28;20673;-77
2024/03/18 07:20:39;;;;;;;4.13;3.10;;;;;;;10.16;89.41;95416.66;5055171;28;20189;-77
2024/03/18 07:23:05;;;;;;;5.00;2.63;;;;;;;10.12;89.83;95423.09;5094922;28;20317;-77
2024/03/18 07:25:31;;;;;;;3.23;2.30;;;;;;;10.14;89.63;95416.78;5075489;28;20259;-77
2024/03/18 07:27:57;;;;;;;4.93;3.27;;;;;;;10.23;89.25;95409.91;5071506;28;20277;-77
2024/03/18 07:30:22;;;;;;;4.03;3.10;;;;;;;10.30;89.11;95410.97;5060007;28;20200;-77
2024/03/18 07:32:48;;;;;;;3.37;2.90;;;;;;;10.24;90.02;95403.75;5073845;28;20724;-77
2024/03/18 07:35:14;;;;;;;18.97;10.50;;;;;;;10.32;89.61;95416.00;5076788;28;20188;-77
2024/03/18 07:37:43;;;;;;;11.23;6.13;;;;;;;10.17;89.98;95420.88;5092662;28;20276;-77
2024/03/18 07:40:11;;;;;;;7.50;3.93;;;;;;;10.00;91.09;95416.50;5096628;28;20225;-77
2024/03/18 07:42:40;;;;;;;7.17;4.03;;;;;;;10.30;89.86;95407.56;5057072;28;20239;-77
2024/03/18 07:45:09;;;;;;;7.23;4.23;;;;;;;10.45;89.23;95401.69;5055012;28;20673;-77
2024/03/18 07:47:35;;;;;;;6.93;4.27;;;;;;;10.50;89.30;95404.63;5090556;28;20250;-77
2024/03/18 07:50:03;;;;;;;7.83;4.07;;;;;;;10.43;89.97;95403.63;5095485;28;20208;-77
2024/03/18 07:52:29;;;;;;;5.30;3.57;;;;;;;10.50;89.59;95396.84;5078349;28;20180;-77
2024/03/18 07:54:54;;;;;;;6.57;3.53;;;;;;;10.53;89.17;95400.13;5071353;28;20195;-77
2024/03/18 07:57:20;;;;;;;6.33;3.43;;;;;;;10.55;89.19;95406.78;5067341;28;20216;-77
2024/03/18 07:59:45;;;;;;;6.80;2.80;;;;;;;10.52;89.48;95414.06;5061170;28;20267;-77
2024/03/18 08:02:10;;;;;;;9.47;6.10;;;;;;;10.51;89.30;95413.22;5079205;28;20177;-77
2024/03/18 08:04:36;;;;;;;5.60;3.70;;;;;;;10.54;89.22;95417.31;5056621;28;20177;-77
2024/03/18 08:07:01;;;;;;;7.60;6.10;;;;;;;10.57;89.21;95417.00;5073186;28;20200;-77
2024/03/18 08:09:27;;;;;;;11.27;7.93;;;;;;;10.59;89.31;95422.88;5061192;28;20200;-77
2024/03/18 08:11:52;;;;;;;10.83;9.73;;;;;;;10.57;89.33;95422.22;5068896;28;20649;-77
2024/03/18 08:14:18;;;;;;;10.53;7.90;;;;;;;10.61;89.23;95418.38;5086279;28;20195;-77
2024/03/18 08:16:44;;;;;;;9.60;6.27;;;;;;;10.63;90.13;95424.22;5088005;28;20694;-77
2024/03/18 08:19:09;;;;;;;6.40;3.97;;;;;;;10.67;89.32;95422.94;5084435;28;20188;-77
2024/03/18 08:21:35;;;;;;;7.60;5.70;;;;;;;10.61;89.51;95423.56;5068457;28;20192;-77
2024/03/18 08:24:01;;;;;;;5.70;4.13;;;;;;;10.46;90.42;95416.28;5050282;28;20259;-77
2024/03/18 08:26:33;;;;;;;4.50;3.70;;;;;;;10.56;90.31;95421.41;5068532;28;20201;-77
2024/03/18 08:28:59;;;;;;;6.67;3.10;;;;;;;10.47;90.39;95425.72;5050662;28;20180;-77
2024/03/18 08:31:25;;;;;;;3.73;2.90;;;;;;;10.49;90.12;95430.75;5059628;28;20685;-77
2024/03/18 08:33:50;;;;;;;5.80;3.50;;;;;;;10.50;90.27;95429.78;5067190;28;20203;-77
2024/03/18 08:36:15;;;;;;;7.83;5.70;;;;;;;10.47;90.58;95428.31;5068318;28;20205;-77
2024/03/18 08:38:41;;;;;;;14.87;13.30;;;;;;;10.52;90.82;95427.06;5052270;28;20212;-77
2024/03/18 08:41:07;;;;;;;18.97;15.87;;;;;;;10.53;90.40;95431.28;5058820;28;20550;-77
2024/03/18 08:43:32;;;;;;;8.93;7.17;;;;;;;10.54;90.39;95432.91;5068185;28;20196;-77
2024/03/18 08:45:58;;;;;;;10.53;9.53;;;;;;;10.63;90.40;95424.22;5078046;28;20653;-77
2024/03/18 08:48:27;;;;;;;11.43;10.23;;;;;;;10.69;90.10;95433.97;5077920;28;20270;-77
2024/03/18 08:50:52;;;;;;;8.40;7.60;;;;;;;10.68;90.39;95427.97;5078830;28;20197;-77
2024/03/18 08:53:17;;;;;;;7.07;4.50;;;;;;;10.75;90.21;95435.97;5061865;28;20181;-77
2024/03/18 08:55:46;;;;;;;4.73;4.17;;;;;;;10.79;89.85;95429.53;5079237;28;20181;-77
2024/03/18 08:58:12;;;;;;;5.80;3.87;;;;;;;10.77;89.96;95431.44;5078206;28;20187;-77
2024/03/18 09:00:38;;;;;;;4.80;3.40;;;;;;;10.62;89.91;95435.56;5077277;28;20189;-77
2024/03/18 09:03:10;;;;;;;6.10;3.30;;;;;;;10.70;89.75;95433.03;5059138;28;20208;-78
2024/03/18 09:05:35;;;;;;;8.03;2.70;;;;;;;10.71;89.62;95429.47;5092343;28;20199;-77
2024/03/18 09:08:04;;;;;;;4.63;2.33;;;;;;;10.71;89.47;95435.47;5090509;28;20212;-78
2024/03/18 09:10:30;;;;;;;3.77;2.50;;;;;;;10.80;89.29;95433.75;5093584;28;20197;-77
2024/03/18 09:12:55;;;;;;;3.27;2.50;;;;;;;10.66;89.31;95432.50;5074090;28;20245;-77
2024/03/18 09:15:21;;;;;;;5.30;2.40;;;;;;;10.68;89.71;95435.75;5058517;28;20185;-77
2024/03/18 09:17:47;;;;;;;5.80;2.37;;;;;;;10.64;89.61;95434.44;5077428;28;20264;-78
2024/03/18 09:20:16;;;;;;;5.40;2.70;;;;;;;10.74;89.55;95436.94;5066775;28;20193;-78
2024/03/18 09:22:45;;;;;;;3.87;3.20;;;;;;;10.85;89.43;95436.69;5054095;28;20185;-78
2024/03/18 09:25:11;;;;;;;2.80;2.43;;;;;;;10.87;89.16;95439.16;5054902;28;20169;-78
2024/03/18 09:27:37;;;;;;;3.23;2.47;;;;;;;10.83;88.56;95441.25;5076338;28;20215;-78
2024/03/18 09:30:03;;;;;;;2.77;2.27;;;;;;;10.78;88.52;95433.91;5052630;28;20287;-78
2024/03/18 09:32:29;;;;;;;6.10;2.23;;;;;;;10.84;88.98;95435.06;5088212;28;20189;-78
2024/03/18 09:34:54;;;;;;;3.87;1.87;;;;;;;10.94;89.00;95438.38;5073695;28;20695;-78
2024/03/18 09:37:19;;;;;;;3.23;1.47;;;;;;;10.95;87.81;95442.59;5077273;28;20197;-79
2024/03/18 09:39:45;;;;;;;3.63;2.00;;;;;;;10.92;88.14;95445.53;5059785;28;20176;-78
2024/03/18 09:42:11;;;;;;;4.07;2.13;;;;;;;10.95;88.47;95447.00;5077679;28;20185;-78
2024/03/18 09:44:39;;;;;;;3.60;1.40;;;;;;;11.02;87.46;95448.03;5061868;28;20847;-78
2024/03/18 09:47:04;;;;;;;4.40;1.53;;;;;;;10.74;88.15;95449.94;5077354;28;20856;-78
2024/03/18 09:49:30;;;;;;;7.17;1.97;;;;;;;10.44;90.13;95451.97;5074646;28;20245;-78
2024/03/18 09:51:58;;;;;;;4.00;2.20;;;;;;;10.69;89.68;95452.16;5062649;28;20193;-78
2024/03/18 09:54:23;;;;;;;4.27;2.10;;;;;;;10.73;90.18;95453.50;5077629;28;20177;-78
2024/03/18 09:56:55;;;;;;;5.70;3.50;;;;;;;10.93;89.64;95451.53;5078174;28;20204;-78
2024/03/18 09:59:20;;;;;;;10.63;8.37;;;;;;;10.89;89.59;95452.81;5077484;28;20196;-78
2024/03/18 10:01:46;;;;;;;5.47;4.37;;;;;;;10.85;90.33;95465.28;5060880;28;20184;-78
2024/03/18 10:04:11;;;;;;;3.00;1.80;;;;;;;10.55;91.46;95463.09;5093003;28;20187;-78
2024/03/18 10:06:39;;;;;;;3.23;1.73;;;;;;;10.82;90.26;95463.00;5062222;28;20537;-78
2024/03/18 10:09:04;;;;;;;3.93;3.57;;;;;;;10.92;89.76;95466.31;5061921;28;20238;-79
2024/03/18 10:11:30;;;;;;;5.60;2.50;;;;;;;10.97;89.82;95464.09;5076838;28;20678;-78
2024/03/18 10:13:55;;;;;;;4.00;2.23;;;;;;;11.03;89.55;95466.06;5060288;28;20613;-78
2024/03/18 10:16:22;;;;;;;2.37;1.40;;;;;;;11.05;88.65;95469.34;5077721;28;20253;-78
2024/03/18 10:18:47;;;;;;;2.03;1.30;;;;;;;11.08;88.08;95460.41;5075770;28;20275;-78
2024/03/18 10:21:12;;;;;;;5.23;1.83;;;;;;;11.19;87.99;95464.53;5078793;28;20259;-79
2024/03/18 10:23:40;;;;;;;4.10;1.57;;;;;;;11.23;88.42;95460.69;5076168;28;20183;-78
2024/03/18 10:26:07;;;;;;;1.67;1.47;;;;;;;11.41;87.59;95461.44;5078336;28;20223;-76
2024/03/18 10:28:32;;;;;;;1.73;1.33;;;;;;;11.59;86.37;95466.56;5074829;28;20173;-78
2024/03/18 10:30:58;;;;;;;4.87;1.50;;;;;;;11.24;86.28;95464.91;5079147;28;20222;-78
2024/03/18 10:33:24;;;;;;;2.10;1.50;;;;;;;11.57;86.18;95471.06;5076598;28;20233;-78
2024/03/18 10:35:49;;;;;;;3.23;1.40;;;;;;;11.61;86.87;95470.63;5073318;28;20177;-78
2024/03/18 10:38:35;;;;;;;3.40;1.47;;;;;;;11.58;85.46;95473.53;5056607;28;20177;-78
2024/03/18 10:41:02;;;;;;;6.73;6.10;;;;;;;11.46;85.62;95469.56;5089493;28;20172;-78
2024/03/18 10:43:32;;;;;;;9.77;8.97;;;;;;;11.58;85.97;95470.13;5076232;28;20704;-78
2024/03/18 10:45:57;;;;;;;12.23;10.93;;;;;;;11.40;85.75;95472.81;5064115;28;20196;-78
2024/03/18 10:48:25;;;;;;;3.07;2.50;;;;;;;11.19;86.16;95467.13;5074853;28;20183;-78
2024/03/18 10:50:51;;;;;;;2.27;2.07;;;;;;;11.47;85.25;95473.78;5065488;28;20208;-78
2024/03/18 10:53:21;;;;;;;3.60;2.00;;;;;;;11.59;85.14;95471.75;5058537;28;20247;-78
2024/03/18 10:55:48;;;;;;;7.20;6.50;;;;;;;11.66;84.83;95470.16;5095779;28;20172;-78
2024/03/18 10:58:14;;;;;;;4.27;2.80;;;;;;;11.81;83.57;95480.81;5066527;28;20215;-78
2024/03/18 11:00:40;;;;;;;4.50;3.10;;;;;;;11.86;83.98;95483.78;5075892;28;20318;-78
2024/03/18 11:03:15;;;;;;;3.67;1.87;;;;;;;11.85;82.94;95485.56;5059957;28;20233;-78
2024/03/18 11:05:49;;;;;;;2.77;1.60;;;;;;;11.61;84.39;95482.81;5064024;28;20189;-78
2024/03/18 11:08:16;;;;;;;6.30;2.73;;;;;;;11.68;84.76;95488.22;5077802;28;20215;-76
2024/03/18 11:10:43;;;;;;;4.03;2.63;;;;;;;11.71;84.80;95491.31;5074928;28;20767;-78
2024/03/18 11:13:10;;;;;;;4.67;2.70;;;;;;;11.63;85.66;95496.47;5056920;28;20187;-78
2024/03/18 11:15:38;;;;;;;4.17;2.80;;;;;;;11.52;86.81;95494.97;5093142;28;20555;-78
2024/03/18 11:18:05;;;;;;;4.10;2.57;;;;;;;11.62;86.56;95500.03;5061285;28;20208;-78
2024/03/18 11:20:30;;;;;;;3.37;3.00;;;;;;;11.63;87.01;95497.28;5071899;28;20168;-78
2024/03/18 11:22:57;;;;;;;6.10;4.27;;;;;;;11.64;86.98;95498.91;5057027;28;20193;-78
2024/03/18 11:25:27;;;;;;;6.03;4.33;;;;;;;11.69;86.81;95500.25;5052819;28;20181;-78
2024/03/18 11:27:55;;;;;;;8.13;5.93;;;;;;;11.70;87.09;95505.28;5071694;28;20702;-78
2024/03/18 11:30:28;;;;;;;10.60;5.13;;;;;;;11.77;86.92;95495.09;5060062;28;20196;-78